Marigola — IBEL — position and weather

sailwx.info

Track history (hours):
 
Tides and Currents Weather Stations Pressure Air Temp Water Temp Dewpoint Dewpoint Depression Visibility Wind Speed Wind Dir Waves Ship Positions

Marigola

Last reported at 2017-Feb-06 22:25 UTC. Time now 2017-Feb-22 20:03 UTC.
Position N 09°16' W 079°55'.
Warning: this ship's position is 15 days out of date.

Length 145 m; draft 8.4 m.

Type: Ship (hazmat cat A). MMSI: 247567000.

Date/timePositionNaut miles runAvg speedWind from/ knotsBaromVisibWave heightAir tempDewpointWater temp
2017-Feb-06 22:25N 09°16' W 079°55'1 1.2
2017-Feb-06 21:15N 09°17' W 079°55'4 6.0
2017-Feb-06 20:33N 09°21' W 079°55'2 1.7
2017-Feb-06 19:33N 09°23' W 079°56'0 0.0
2017-Feb-06 18:33N 09°23' W 079°56'0 0.0
2017-Feb-06 17:33N 09°23' W 079°56'0 0.0
2017-Feb-06 16:33N 09°23' W 079°56'0 0.0
2017-Feb-06 15:34N 09°23' W 079°56'0 0.0
2017-Feb-06 14:33N 09°23' W 079°56'0 0.0
2017-Feb-06 13:33N 09°23' W 079°56'0 0.0
2017-Feb-06 12:33N 09°23' W 079°56'0 0.0
2017-Feb-06 11:33N 09°23' W 079°56'0 0.0
2017-Feb-06 10:33N 09°23' W 079°56'0 0.0
2017-Feb-06 09:33N 09°23' W 079°56'0 0.0
2017-Feb-06 08:33N 09°23' W 079°56'0 0.0
2017-Feb-06 07:33N 09°23' W 079°56'0 0.0
2017-Feb-06 06:33N 09°23' W 079°56'0 0.0
2017-Feb-06 05:33N 09°23' W 079°56'0 0.0
2017-Feb-06 04:33N 09°23' W 079°56'0 0.0
2017-Feb-06 03:33N 09°23' W 079°56'0 0.0
2017-Feb-06 02:33N 09°23' W 079°56'0 0.1
2017-Feb-06 01:33N 09°23' W 079°56'3 2.7
2017-Feb-06 00:33N 09°25' W 079°55'2 2.4
2017-Feb-05 23:33N 09°24' W 079°57'0 0.0
2017-Feb-05 22:33N 09°24' W 079°57'0 0.0
2017-Feb-05 21:34N 09°24' W 079°57'0 0.0
2017-Feb-05 20:34N 09°24' W 079°57'0 0.0
2017-Feb-05 19:34N 09°24' W 079°57'0 0.0
2017-Feb-05 18:33N 09°24' W 079°57'0 0.0
2017-Feb-05 17:33N 09°24' W 079°57'0 0.0
2017-Feb-05 16:33N 09°24' W 079°57'0 0.0
2017-Feb-05 15:33N 09°24' W 079°57'0 0.0
2017-Feb-05 14:34N 09°24' W 079°57'0 0.0
2017-Feb-05 13:34N 09°24' W 079°57'0 0.0
2017-Feb-05 12:33N 09°24' W 079°57'0 0.0
2017-Feb-05 11:33N 09°24' W 079°57'0 0.0
2017-Feb-05 10:33N 09°24' W 079°57'0 0.0
2017-Feb-05 09:33N 09°24' W 079°57'0 0.0
2017-Feb-05 08:34N 09°24' W 079°57'0 0.0
2017-Feb-05 07:33N 09°24' W 079°57'0 0.0
2017-Feb-05 06:33N 09°24' W 079°57'0 0.0
2017-Feb-05 05:33N 09°24' W 079°57'0 0.0
2017-Feb-05 04:33N 09°24' W 079°57'4 3.9
2017-Feb-05 03:34N 09°28' W 079°56'  
Track history (hours):
 
Tides and Currents Weather Stations Pressure Air Temp Water Temp Dewpoint Dewpoint Depression Visibility Wind Speed Wind Dir Waves Ship Positions

Marigola

Last reported at 2017-Feb-06 22:25 UTC. Time now 2017-Feb-22 20:03 UTC.
Position N 09°16' W 079°55'.
Warning: this ship's position is 15 days out of date.

Length 145 m; draft 8.4 m.

Type: Ship (hazmat cat A). MMSI: 247567000.

Date/timePositionNaut miles runAvg speedWind from/ knotsBaromVisibWave heightAir tempDewpointWater temp
2017-Feb-06 22:25N 09°16' W 079°55'1 1.2
2017-Feb-06 21:15N 09°17' W 079°55'4 6.0
2017-Feb-06 20:33N 09°21' W 079°55'2 1.7
2017-Feb-06 19:33N 09°23' W 079°56'0 0.0
2017-Feb-06 18:33N 09°23' W 079°56'0 0.0
2017-Feb-06 17:33N 09°23' W 079°56'0 0.0
2017-Feb-06 16:33N 09°23' W 079°56'0 0.0
2017-Feb-06 15:34N 09°23' W 079°56'0 0.0
2017-Feb-06 14:33N 09°23' W 079°56'0 0.0
2017-Feb-06 13:33N 09°23' W 079°56'0 0.0
2017-Feb-06 12:33N 09°23' W 079°56'0 0.0
2017-Feb-06 11:33N 09°23' W 079°56'0 0.0
2017-Feb-06 10:33N 09°23' W 079°56'0 0.0
2017-Feb-06 09:33N 09°23' W 079°56'0 0.0
2017-Feb-06 08:33N 09°23' W 079°56'0 0.0
2017-Feb-06 07:33N 09°23' W 079°56'0 0.0
2017-Feb-06 06:33N 09°23' W 079°56'0 0.0
2017-Feb-06 05:33N 09°23' W 079°56'0 0.0
2017-Feb-06 04:33N 09°23' W 079°56'0 0.0
2017-Feb-06 03:33N 09°23' W 079°56'0 0.0
2017-Feb-06 02:33N 09°23' W 079°56'0 0.1
2017-Feb-06 01:33N 09°23' W 079°56'3 2.7
2017-Feb-06 00:33N 09°25' W 079°55'2 2.4
2017-Feb-05 23:33N 09°24' W 079°57'0 0.0
2017-Feb-05 22:33N 09°24' W 079°57'0 0.0
2017-Feb-05 21:34N 09°24' W 079°57'0 0.0
2017-Feb-05 20:34N 09°24' W 079°57'0 0.0
2017-Feb-05 19:34N 09°24' W 079°57'0 0.0
2017-Feb-05 18:33N 09°24' W 079°57'0 0.0
2017-Feb-05 17:33N 09°24' W 079°57'0 0.0
2017-Feb-05 16:33N 09°24' W 079°57'0 0.0
2017-Feb-05 15:33N 09°24' W 079°57'0 0.0
2017-Feb-05 14:34N 09°24' W 079°57'0 0.0
2017-Feb-05 13:34N 09°24' W 079°57'0 0.0
2017-Feb-05 12:33N 09°24' W 079°57'0 0.0
2017-Feb-05 11:33N 09°24' W 079°57'0 0.0
2017-Feb-05 10:33N 09°24' W 079°57'0 0.0
2017-Feb-05 09:33N 09°24' W 079°57'0 0.0
2017-Feb-05 08:34N 09°24' W 079°57'0 0.0
2017-Feb-05 07:33N 09°24' W 079°57'0 0.0
2017-Feb-05 06:33N 09°24' W 079°57'0 0.0
2017-Feb-05 05:33N 09°24' W 079°57'0 0.0
2017-Feb-05 04:33N 09°24' W 079°57'4 3.9
2017-Feb-05 03:34N 09°28' W 079°56'  

Dump ship's entire track history